sensor_id;sensor_type;location;lat;lon;timestamp;P1;durP1;ratioP1;P2;durP2;ratioP2
249;SDS011;109;19.806;-70.704;2022-12-18T00:01:01;16.80;;;5.50;;
249;SDS011;109;19.806;-70.704;2022-12-18T00:03:35;23.80;;;6.17;;
249;SDS011;109;19.806;-70.704;2022-12-18T00:06:01;14.53;;;5.73;;
249;SDS011;109;19.806;-70.704;2022-12-18T00:08:28;18.00;;;5.93;;
249;SDS011;109;19.806;-70.704;2022-12-18T00:10:54;16.93;;;4.77;;
249;SDS011;109;19.806;-70.704;2022-12-18T00:13:21;13.63;;;6.07;;
249;SDS011;109;19.806;-70.704;2022-12-18T00:15:47;14.03;;;5.40;;
249;SDS011;109;19.806;-70.704;2022-12-18T00:18:14;17.67;;;6.37;;
249;SDS011;109;19.806;-70.704;2022-12-18T00:20:40;12.90;;;4.70;;
249;SDS011;109;19.806;-70.704;2022-12-18T00:23:06;13.73;;;5.00;;
249;SDS011;109;19.806;-70.704;2022-12-18T00:25:33;8.73;;;4.00;;
249;SDS011;109;19.806;-70.704;2022-12-18T00:28:01;15.33;;;4.37;;
249;SDS011;109;19.806;-70.704;2022-12-18T00:30:28;14.47;;;5.20;;
249;SDS011;109;19.806;-70.704;2022-12-18T00:32:55;9.00;;;3.70;;
249;SDS011;109;19.806;-70.704;2022-12-18T00:35:24;19.40;;;4.53;;
249;SDS011;109;19.806;-70.704;2022-12-18T00:37:51;11.83;;;4.70;;
249;SDS011;109;19.806;-70.704;2022-12-18T00:40:25;9.87;;;3.97;;
249;SDS011;109;19.806;-70.704;2022-12-18T00:42:52;10.00;;;4.00;;
249;SDS011;109;19.806;-70.704;2022-12-18T00:45:29;7.70;;;3.77;;
249;SDS011;109;19.806;-70.704;2022-12-18T00:47:56;9.43;;;4.43;;
249;SDS011;109;19.806;-70.704;2022-12-18T00:50:30;9.90;;;4.20;;
249;SDS011;109;19.806;-70.704;2022-12-18T00:52:59;23.90;;;4.57;;
249;SDS011;109;19.806;-70.704;2022-12-18T00:55:32;9.83;;;4.20;;
249;SDS011;109;19.806;-70.704;2022-12-18T00:58:19;11.50;;;4.27;;
249;SDS011;109;19.806;-70.704;2022-12-18T01:01:03;7.47;;;3.93;;
249;SDS011;109;19.806;-70.704;2022-12-18T01:03:37;11.50;;;3.87;;
249;SDS011;109;19.806;-70.704;2022-12-18T01:06:20;10.07;;;4.33;;
249;SDS011;109;19.806;-70.704;2022-12-18T01:08:46;8.40;;;3.90;;
249;SDS011;109;19.806;-70.704;2022-12-18T01:11:26;13.13;;;4.20;;
249;SDS011;109;19.806;-70.704;2022-12-18T01:13:53;12.60;;;4.40;;
249;SDS011;109;19.806;-70.704;2022-12-18T01:16:36;14.33;;;4.33;;
249;SDS011;109;19.806;-70.704;2022-12-18T01:19:03;13.27;;;4.03;;
249;SDS011;109;19.806;-70.704;2022-12-18T01:21:43;10.07;;;4.47;;
249;SDS011;109;19.806;-70.704;2022-12-18T01:24:10;16.73;;;5.10;;
249;SDS011;109;19.806;-70.704;2022-12-18T01:26:52;13.00;;;4.90;;
249;SDS011;109;19.806;-70.704;2022-12-18T01:29:18;16.47;;;4.87;;
249;SDS011;109;19.806;-70.704;2022-12-18T01:31:59;9.50;;;4.57;;
249;SDS011;109;19.806;-70.704;2022-12-18T01:34:32;13.83;;;4.70;;
249;SDS011;109;19.806;-70.704;2022-12-18T01:37:14;13.80;;;4.53;;
249;SDS011;109;19.806;-70.704;2022-12-18T01:39:54;8.93;;;4.40;;
249;SDS011;109;19.806;-70.704;2022-12-18T01:42:21;16.63;;;4.40;;
249;SDS011;109;19.806;-70.704;2022-12-18T01:45:06;10.60;;;4.47;;
249;SDS011;109;19.806;-70.704;2022-12-18T01:47:46;15.37;;;4.70;;
249;SDS011;109;19.806;-70.704;2022-12-18T01:50:29;23.00;;;5.80;;
249;SDS011;109;19.806;-70.704;2022-12-18T01:53:11;17.33;;;5.37;;
249;SDS011;109;19.806;-70.704;2022-12-18T01:56:00;17.67;;;5.07;;
249;SDS011;109;19.806;-70.704;2022-12-18T01:58:48;14.03;;;4.47;;
249;SDS011;109;19.806;-70.704;2022-12-18T02:01:36;15.10;;;4.73;;
249;SDS011;109;19.806;-70.704;2022-12-18T02:04:22;17.50;;;4.97;;
249;SDS011;109;19.806;-70.704;2022-12-18T02:07:08;18.87;;;4.50;;
249;SDS011;109;19.806;-70.704;2022-12-18T02:10:15;14.27;;;4.40;;
249;SDS011;109;19.806;-70.704;2022-12-18T02:13:19;15.47;;;4.40;;
249;SDS011;109;19.806;-70.704;2022-12-18T02:18:57;23.67;;;4.77;;
249;SDS011;109;19.806;-70.704;2022-12-18T02:21:54;13.87;;;4.50;;
249;SDS011;109;19.806;-70.704;2022-12-18T02:27:27;16.33;;;4.47;;
249;SDS011;109;19.806;-70.704;2022-12-18T02:30:11;13.83;;;4.20;;
249;SDS011;109;19.806;-70.704;2022-12-18T02:32:40;7.00;;;3.67;;
249;SDS011;109;19.806;-70.704;2022-12-18T02:35:24;10.80;;;4.33;;
249;SDS011;109;19.806;-70.704;2022-12-18T02:37:56;12.63;;;4.73;;
249;SDS011;109;19.806;-70.704;2022-12-18T02:40:39;14.60;;;4.70;;
249;SDS011;109;19.806;-70.704;2022-12-18T02:43:17;15.87;;;5.20;;
249;SDS011;109;19.806;-70.704;2022-12-18T02:45:59;17.80;;;4.27;;
249;SDS011;109;19.806;-70.704;2022-12-18T02:48:32;12.73;;;4.27;;
249;SDS011;109;19.806;-70.704;2022-12-18T02:51:19;12.10;;;5.20;;
249;SDS011;109;19.806;-70.704;2022-12-18T02:54:47;12.80;;;4.43;;
249;SDS011;109;19.806;-70.704;2022-12-18T03:00:41;14.70;;;5.53;;
249;SDS011;109;19.806;-70.704;2022-12-18T03:03:39;9.40;;;4.27;;
249;SDS011;109;19.806;-70.704;2022-12-18T03:06:43;10.80;;;4.47;;
249;SDS011;109;19.806;-70.704;2022-12-18T03:09:22;12.47;;;4.47;;
249;SDS011;109;19.806;-70.704;2022-12-18T03:15:01;17.60;;;4.60;;
249;SDS011;109;19.806;-70.704;2022-12-18T03:18:10;21.93;;;4.90;;
249;SDS011;109;19.806;-70.704;2022-12-18T03:20:58;8.03;;;4.20;;
249;SDS011;109;19.806;-70.704;2022-12-18T03:23:39;6.83;;;4.10;;
249;SDS011;109;19.806;-70.704;2022-12-18T03:26:25;7.77;;;3.63;;
249;SDS011;109;19.806;-70.704;2022-12-18T03:29:06;12.30;;;4.77;;
249;SDS011;109;19.806;-70.704;2022-12-18T03:31:50;13.20;;;4.73;;
249;SDS011;109;19.806;-70.704;2022-12-18T03:34:29;14.53;;;4.43;;
249;SDS011;109;19.806;-70.704;2022-12-18T03:37:15;7.80;;;4.30;;
249;SDS011;109;19.806;-70.704;2022-12-18T03:39:55;14.53;;;4.43;;
249;SDS011;109;19.806;-70.704;2022-12-18T03:42:25;11.50;;;3.80;;
249;SDS011;109;19.806;-70.704;2022-12-18T03:45:20;10.43;;;4.17;;
249;SDS011;109;19.806;-70.704;2022-12-18T03:47:58;7.40;;;3.93;;
249;SDS011;109;19.806;-70.704;2022-12-18T03:50:45;17.83;;;4.20;;
249;SDS011;109;19.806;-70.704;2022-12-18T03:53:59;8.07;;;4.10;;
249;SDS011;109;19.806;-70.704;2022-12-18T03:57:05;12.70;;;4.00;;
249;SDS011;109;19.806;-70.704;2022-12-18T03:59:56;6.13;;;3.73;;
249;SDS011;109;19.806;-70.704;2022-12-18T04:02:42;14.23;;;4.13;;
249;SDS011;109;19.806;-70.704;2022-12-18T04:05:40;13.50;;;3.70;;
249;SDS011;109;19.806;-70.704;2022-12-18T04:08:18;8.07;;;3.97;;
249;SDS011;109;19.806;-70.704;2022-12-18T04:11:04;11.93;;;3.80;;
249;SDS011;109;19.806;-70.704;2022-12-18T04:13:38;10.07;;;3.20;;
249;SDS011;109;19.806;-70.704;2022-12-18T04:16:21;13.30;;;4.27;;
249;SDS011;109;19.806;-70.704;2022-12-18T04:18:52;12.63;;;4.30;;
249;SDS011;109;19.806;-70.704;2022-12-18T04:21:37;15.63;;;4.00;;
249;SDS011;109;19.806;-70.704;2022-12-18T04:24:12;13.63;;;4.30;;
249;SDS011;109;19.806;-70.704;2022-12-18T04:27:03;10.77;;;3.40;;
249;SDS011;109;19.806;-70.704;2022-12-18T04:29:44;9.83;;;4.00;;
249;SDS011;109;19.806;-70.704;2022-12-18T04:32:25;12.90;;;4.30;;
249;SDS011;109;19.806;-70.704;2022-12-18T04:35:13;12.00;;;4.20;;
249;SDS011;109;19.806;-70.704;2022-12-18T04:37:47;10.23;;;3.97;;
249;SDS011;109;19.806;-70.704;2022-12-18T04:40:27;13.03;;;3.70;;
249;SDS011;109;19.806;-70.704;2022-12-18T04:42:54;7.40;;;4.03;;
249;SDS011;109;19.806;-70.704;2022-12-18T04:45:33;10.80;;;3.87;;
249;SDS011;109;19.806;-70.704;2022-12-18T04:48:00;14.37;;;4.10;;
249;SDS011;109;19.806;-70.704;2022-12-18T04:50:42;12.03;;;3.37;;
249;SDS011;109;19.806;-70.704;2022-12-18T04:53:08;12.60;;;3.50;;
249;SDS011;109;19.806;-70.704;2022-12-18T04:56:04;13.80;;;4.00;;
249;SDS011;109;19.806;-70.704;2022-12-18T04:58:49;9.77;;;3.67;;
249;SDS011;109;19.806;-70.704;2022-12-18T05:01:29;15.80;;;3.57;;
249;SDS011;109;19.806;-70.704;2022-12-18T05:03:55;8.30;;;3.47;;
249;SDS011;109;19.806;-70.704;2022-12-18T05:06:36;9.67;;;3.17;;
249;SDS011;109;19.806;-70.704;2022-12-18T05:09:02;10.50;;;3.50;;
249;SDS011;109;19.806;-70.704;2022-12-18T05:11:42;7.63;;;3.30;;
249;SDS011;109;19.806;-70.704;2022-12-18T05:14:08;8.20;;;3.30;;
249;SDS011;109;19.806;-70.704;2022-12-18T05:16:55;16.53;;;4.40;;
249;SDS011;109;19.806;-70.704;2022-12-18T05:19:29;12.50;;;4.37;;
249;SDS011;109;19.806;-70.704;2022-12-18T05:22:10;10.30;;;3.73;;
249;SDS011;109;19.806;-70.704;2022-12-18T05:24:37;11.97;;;3.80;;
249;SDS011;109;19.806;-70.704;2022-12-18T05:27:17;6.37;;;3.33;;
249;SDS011;109;19.806;-70.704;2022-12-18T05:29:57;10.63;;;3.77;;
249;SDS011;109;19.806;-70.704;2022-12-18T05:32:23;11.40;;;3.83;;
249;SDS011;109;19.806;-70.704;2022-12-18T05:35:03;9.13;;;3.73;;
249;SDS011;109;19.806;-70.704;2022-12-18T05:37:39;8.90;;;3.60;;
249;SDS011;109;19.806;-70.704;2022-12-18T05:40:19;13.20;;;4.10;;
249;SDS011;109;19.806;-70.704;2022-12-18T05:42:45;8.37;;;3.77;;
249;SDS011;109;19.806;-70.704;2022-12-18T05:45:25;14.70;;;4.60;;
249;SDS011;109;19.806;-70.704;2022-12-18T05:47:52;6.77;;;3.67;;
249;SDS011;109;19.806;-70.704;2022-12-18T05:50:35;8.70;;;3.63;;
249;SDS011;109;19.806;-70.704;2022-12-18T05:53:09;12.30;;;4.20;;
249;SDS011;109;19.806;-70.704;2022-12-18T05:55:59;12.00;;;3.90;;
249;SDS011;109;19.806;-70.704;2022-12-18T05:58:40;9.47;;;3.63;;
249;SDS011;109;19.806;-70.704;2022-12-18T06:01:23;16.30;;;4.63;;
249;SDS011;109;19.806;-70.704;2022-12-18T06:03:58;14.70;;;4.90;;
249;SDS011;109;19.806;-70.704;2022-12-18T06:06:38;12.27;;;4.20;;
249;SDS011;109;19.806;-70.704;2022-12-18T06:09:04;8.40;;;3.87;;
249;SDS011;109;19.806;-70.704;2022-12-18T06:11:44;15.53;;;3.90;;
249;SDS011;109;19.806;-70.704;2022-12-18T06:14:10;7.70;;;4.17;;
249;SDS011;109;19.806;-70.704;2022-12-18T06:16:58;12.40;;;4.17;;
249;SDS011;109;19.806;-70.704;2022-12-18T06:19:31;13.90;;;4.37;;
249;SDS011;109;19.806;-70.704;2022-12-18T06:22:11;11.57;;;4.30;;
249;SDS011;109;19.806;-70.704;2022-12-18T06:24:37;10.33;;;4.33;;
249;SDS011;109;19.806;-70.704;2022-12-18T06:27:18;13.23;;;4.27;;
249;SDS011;109;19.806;-70.704;2022-12-18T06:29:58;13.13;;;4.10;;
249;SDS011;109;19.806;-70.704;2022-12-18T06:32:24;17.23;;;4.40;;
249;SDS011;109;19.806;-70.704;2022-12-18T06:35:04;13.20;;;4.23;;
249;SDS011;109;19.806;-70.704;2022-12-18T06:37:31;14.43;;;4.53;;
249;SDS011;109;19.806;-70.704;2022-12-18T06:40:11;32.67;;;5.10;;
249;SDS011;109;19.806;-70.704;2022-12-18T06:42:37;18.07;;;5.43;;
249;SDS011;109;19.806;-70.704;2022-12-18T06:45:18;20.63;;;5.20;;
249;SDS011;109;19.806;-70.704;2022-12-18T06:47:44;32.07;;;6.37;;
249;SDS011;109;19.806;-70.704;2022-12-18T06:50:24;32.43;;;7.73;;
249;SDS011;109;19.806;-70.704;2022-12-18T06:52:50;33.63;;;6.10;;
249;SDS011;109;19.806;-70.704;2022-12-18T06:55:36;22.70;;;5.33;;
249;SDS011;109;19.806;-70.704;2022-12-18T06:58:16;22.80;;;5.30;;
249;SDS011;109;19.806;-70.704;2022-12-18T07:01:00;21.03;;;5.03;;
249;SDS011;109;19.806;-70.704;2022-12-18T07:03:34;16.57;;;5.70;;
249;SDS011;109;19.806;-70.704;2022-12-18T07:06:15;24.57;;;6.73;;
249;SDS011;109;19.806;-70.704;2022-12-18T07:08:43;22.40;;;6.10;;
249;SDS011;109;19.806;-70.704;2022-12-18T07:11:34;35.07;;;6.87;;
249;SDS011;109;19.806;-70.704;2022-12-18T07:14:07;39.43;;;8.63;;
249;SDS011;109;19.806;-70.704;2022-12-18T07:16:48;31.63;;;6.07;;
249;SDS011;109;19.806;-70.704;2022-12-18T07:19:14;30.67;;;7.17;;
249;SDS011;109;19.806;-70.704;2022-12-18T07:21:57;29.53;;;6.53;;
249;SDS011;109;19.806;-70.704;2022-12-18T07:24:23;19.93;;;6.97;;
249;SDS011;109;19.806;-70.704;2022-12-18T07:27:04;18.73;;;6.30;;
249;SDS011;109;19.806;-70.704;2022-12-18T07:29:30;28.67;;;6.00;;
249;SDS011;109;19.806;-70.704;2022-12-18T07:32:11;14.60;;;5.27;;
249;SDS011;109;19.806;-70.704;2022-12-18T07:34:51;16.63;;;4.63;;
249;SDS011;109;19.806;-70.704;2022-12-18T07:37:17;12.37;;;4.20;;
249;SDS011;109;19.806;-70.704;2022-12-18T07:39:57;11.47;;;3.93;;
249;SDS011;109;19.806;-70.704;2022-12-18T07:42:23;12.83;;;4.57;;
249;SDS011;109;19.806;-70.704;2022-12-18T07:45:03;16.03;;;4.30;;
249;SDS011;109;19.806;-70.704;2022-12-18T07:47:33;11.77;;;4.00;;
249;SDS011;109;19.806;-70.704;2022-12-18T07:50:14;12.63;;;4.40;;
249;SDS011;109;19.806;-70.704;2022-12-18T07:52:41;13.40;;;4.53;;
249;SDS011;109;19.806;-70.704;2022-12-18T07:55:26;8.03;;;3.87;;
249;SDS011;109;19.806;-70.704;2022-12-18T07:58:06;9.67;;;4.87;;
249;SDS011;109;19.806;-70.704;2022-12-18T08:00:46;15.17;;;4.57;;
249;SDS011;109;19.806;-70.704;2022-12-18T08:03:15;23.53;;;5.03;;
249;SDS011;109;19.806;-70.704;2022-12-18T08:06:04;11.50;;;4.63;;
249;SDS011;109;19.806;-70.704;2022-12-18T08:08:38;13.90;;;4.87;;
249;SDS011;109;19.806;-70.704;2022-12-18T08:11:18;15.40;;;5.00;;
249;SDS011;109;19.806;-70.704;2022-12-18T08:13:44;14.60;;;5.03;;
249;SDS011;109;19.806;-70.704;2022-12-18T08:16:24;18.47;;;4.93;;
249;SDS011;109;19.806;-70.704;2022-12-18T08:18:51;16.53;;;4.50;;
249;SDS011;109;19.806;-70.704;2022-12-18T08:21:33;7.30;;;3.33;;
249;SDS011;109;19.806;-70.704;2022-12-18T08:24:00;6.80;;;3.53;;
249;SDS011;109;19.806;-70.704;2022-12-18T08:26:40;11.67;;;3.50;;
249;SDS011;109;19.806;-70.704;2022-12-18T08:29:06;13.00;;;4.00;;
249;SDS011;109;19.806;-70.704;2022-12-18T08:31:47;8.87;;;3.43;;
249;SDS011;109;19.806;-70.704;2022-12-18T08:34:13;6.03;;;3.57;;
249;SDS011;109;19.806;-70.704;2022-12-18T08:36:54;8.73;;;3.93;;
249;SDS011;109;19.806;-70.704;2022-12-18T08:39:20;13.13;;;3.60;;
249;SDS011;109;19.806;-70.704;2022-12-18T08:42:00;8.13;;;3.40;;
249;SDS011;109;19.806;-70.704;2022-12-18T08:44:52;9.93;;;3.87;;
249;SDS011;109;19.806;-70.704;2022-12-18T08:47:32;11.77;;;4.03;;
249;SDS011;109;19.806;-70.704;2022-12-18T08:50:12;12.17;;;3.67;;
249;SDS011;109;19.806;-70.704;2022-12-18T08:52:38;8.47;;;3.10;;
249;SDS011;109;19.806;-70.704;2022-12-18T08:55:25;12.10;;;3.13;;
249;SDS011;109;19.806;-70.704;2022-12-18T08:58:05;6.20;;;3.10;;
249;SDS011;109;19.806;-70.704;2022-12-18T09:00:52;11.40;;;4.27;;
249;SDS011;109;19.806;-70.704;2022-12-18T09:03:26;13.23;;;3.67;;
249;SDS011;109;19.806;-70.704;2022-12-18T09:06:06;17.60;;;3.80;;
249;SDS011;109;19.806;-70.704;2022-12-18T09:08:36;16.50;;;3.53;;
249;SDS011;109;19.806;-70.704;2022-12-18T09:11:20;8.50;;;3.70;;
249;SDS011;109;19.806;-70.704;2022-12-18T09:13:56;15.23;;;4.00;;
249;SDS011;109;19.806;-70.704;2022-12-18T09:16:37;9.37;;;3.90;;
249;SDS011;109;19.806;-70.704;2022-12-18T09:19:04;8.60;;;3.90;;
249;SDS011;109;19.806;-70.704;2022-12-18T09:21:44;13.07;;;3.60;;
249;SDS011;109;19.806;-70.704;2022-12-18T09:24:16;14.30;;;4.17;;
249;SDS011;109;19.806;-70.704;2022-12-18T09:26:56;6.67;;;4.10;;
249;SDS011;109;19.806;-70.704;2022-12-18T09:29:22;16.47;;;4.80;;
249;SDS011;109;19.806;-70.704;2022-12-18T09:32:02;15.13;;;3.90;;
249;SDS011;109;19.806;-70.704;2022-12-18T09:34:42;6.80;;;3.57;;
249;SDS011;109;19.806;-70.704;2022-12-18T09:37:15;9.17;;;4.13;;
249;SDS011;109;19.806;-70.704;2022-12-18T09:39:55;14.47;;;4.33;;
249;SDS011;109;19.806;-70.704;2022-12-18T09:42:21;15.00;;;4.60;;
249;SDS011;109;19.806;-70.704;2022-12-18T09:45:01;9.73;;;4.37;;
249;SDS011;109;19.806;-70.704;2022-12-18T09:47:33;5.53;;;3.90;;
249;SDS011;109;19.806;-70.704;2022-12-18T09:53:10;16.90;;;3.90;;
249;SDS011;109;19.806;-70.704;2022-12-18T09:56:05;13.90;;;4.07;;
249;SDS011;109;19.806;-70.704;2022-12-18T09:58:47;8.60;;;3.90;;
249;SDS011;109;19.806;-70.704;2022-12-18T10:01:34;11.90;;;4.07;;
249;SDS011;109;19.806;-70.704;2022-12-18T10:04:00;9.30;;;3.80;;
249;SDS011;109;19.806;-70.704;2022-12-18T10:09:37;10.97;;;4.20;;
249;SDS011;109;19.806;-70.704;2022-12-18T10:12:23;6.80;;;4.03;;
249;SDS011;109;19.806;-70.704;2022-12-18T10:15:11;14.40;;;4.17;;
249;SDS011;109;19.806;-70.704;2022-12-18T10:21:28;23.57;;;4.50;;
249;SDS011;109;19.806;-70.704;2022-12-18T10:26:54;8.43;;;3.63;;
249;SDS011;109;19.806;-70.704;2022-12-18T10:33:01;9.53;;;3.80;;
249;SDS011;109;19.806;-70.704;2022-12-18T10:35:28;8.13;;;3.53;;
249;SDS011;109;19.806;-70.704;2022-12-18T10:40:51;15.57;;;4.20;;
249;SDS011;109;19.806;-70.704;2022-12-18T10:43:28;12.43;;;4.03;;
249;SDS011;109;19.806;-70.704;2022-12-18T10:51:27;21.43;;;5.20;;
249;SDS011;109;19.806;-70.704;2022-12-18T10:54:45;11.20;;;4.70;;
249;SDS011;109;19.806;-70.704;2022-12-18T10:56:49;31.00;;;5.53;;
249;SDS011;109;19.806;-70.704;2022-12-18T10:59:16;22.73;;;5.63;;
249;SDS011;109;19.806;-70.704;2022-12-18T11:04:23;18.37;;;5.20;;
249;SDS011;109;19.806;-70.704;2022-12-18T11:07:16;14.47;;;5.10;;
249;SDS011;109;19.806;-70.704;2022-12-18T11:09:43;16.00;;;4.87;;
249;SDS011;109;19.806;-70.704;2022-12-18T11:12:17;17.47;;;4.97;;
249;SDS011;109;19.806;-70.704;2022-12-18T11:14:46;19.80;;;4.60;;
249;SDS011;109;19.806;-70.704;2022-12-18T11:17:18;10.30;;;5.40;;
249;SDS011;109;19.806;-70.704;2022-12-18T11:20:02;11.13;;;4.67;;
249;SDS011;109;19.806;-70.704;2022-12-18T11:22:55;13.07;;;5.43;;
249;SDS011;109;19.806;-70.704;2022-12-18T11:25:24;11.43;;;6.07;;
249;SDS011;109;19.806;-70.704;2022-12-18T11:27:52;8.60;;;5.43;;
249;SDS011;109;19.806;-70.704;2022-12-18T11:30:31;12.43;;;6.40;;
249;SDS011;109;19.806;-70.704;2022-12-18T11:33:13;12.60;;;8.03;;
249;SDS011;109;19.806;-70.704;2022-12-18T11:38:27;18.57;;;12.40;;
249;SDS011;109;19.806;-70.704;2022-12-18T11:51:38;19.77;;;12.70;;
249;SDS011;109;19.806;-70.704;2022-12-18T11:54:13;21.40;;;12.60;;
249;SDS011;109;19.806;-70.704;2022-12-18T11:56:51;25.30;;;8.20;;
249;SDS011;109;19.806;-70.704;2022-12-18T11:59:31;14.90;;;9.03;;
249;SDS011;109;19.806;-70.704;2022-12-18T12:05:33;16.43;;;8.10;;
249;SDS011;109;19.806;-70.704;2022-12-18T12:08:14;14.20;;;7.10;;
249;SDS011;109;19.806;-70.704;2022-12-18T12:11:15;14.67;;;5.83;;
249;SDS011;109;19.806;-70.704;2022-12-18T12:16:57;12.07;;;5.50;;
249;SDS011;109;19.806;-70.704;2022-12-18T12:22:22;16.53;;;4.90;;
249;SDS011;109;19.806;-70.704;2022-12-18T12:38:31;9.10;;;6.20;;
249;SDS011;109;19.806;-70.704;2022-12-18T12:41:06;9.37;;;6.00;;
249;SDS011;109;19.806;-70.704;2022-12-18T12:43:57;11.40;;;5.60;;
249;SDS011;109;19.806;-70.704;2022-12-18T12:46:26;11.23;;;6.60;;
249;SDS011;109;19.806;-70.704;2022-12-18T12:48:58;12.83;;;5.80;;
249;SDS011;109;19.806;-70.704;2022-12-18T12:51:28;12.10;;;6.00;;
249;SDS011;109;19.806;-70.704;2022-12-18T12:54:12;31.67;;;6.60;;
249;SDS011;109;19.806;-70.704;2022-12-18T13:05:01;24.80;;;6.80;;
249;SDS011;109;19.806;-70.704;2022-12-18T13:07:46;13.93;;;6.27;;
249;SDS011;109;19.806;-70.704;2022-12-18T13:23:26;33.63;;;8.13;;
249;SDS011;109;19.806;-70.704;2022-12-18T13:25:56;38.67;;;7.90;;
249;SDS011;109;19.806;-70.704;2022-12-18T13:31:57;13.57;;;6.50;;
249;SDS011;109;19.806;-70.704;2022-12-18T13:34:17;8.50;;;5.67;;
249;SDS011;109;19.806;-70.704;2022-12-18T13:36:46;10.10;;;5.70;;
249;SDS011;109;19.806;-70.704;2022-12-18T13:42:47;37.03;;;9.37;;
249;SDS011;109;19.806;-70.704;2022-12-18T13:45:01;30.57;;;8.23;;
249;SDS011;109;19.806;-70.704;2022-12-18T13:47:32;47.43;;;10.40;;
249;SDS011;109;19.806;-70.704;2022-12-18T13:50:01;52.03;;;9.50;;
249;SDS011;109;19.806;-70.704;2022-12-18T13:52:37;23.83;;;8.73;;
249;SDS011;109;19.806;-70.704;2022-12-18T13:55:14;21.70;;;6.20;;
249;SDS011;109;19.806;-70.704;2022-12-18T13:57:43;26.53;;;6.93;;
249;SDS011;109;19.806;-70.704;2022-12-18T14:02:51;16.77;;;7.47;;
249;SDS011;109;19.806;-70.704;2022-12-18T14:05:30;28.77;;;6.50;;
249;SDS011;109;19.806;-70.704;2022-12-18T14:08:13;39.03;;;10.73;;
249;SDS011;109;19.806;-70.704;2022-12-18T14:10:42;34.90;;;9.30;;
249;SDS011;109;19.806;-70.704;2022-12-18T14:13:32;31.63;;;8.13;;
249;SDS011;109;19.806;-70.704;2022-12-18T14:16:03;20.27;;;7.17;;
249;SDS011;109;19.806;-70.704;2022-12-18T14:18:45;20.23;;;8.17;;
249;SDS011;109;19.806;-70.704;2022-12-18T14:21:25;35.70;;;10.00;;
249;SDS011;109;19.806;-70.704;2022-12-18T14:24:11;43.07;;;9.00;;
249;SDS011;109;19.806;-70.704;2022-12-18T14:26:43;34.43;;;7.73;;
249;SDS011;109;19.806;-70.704;2022-12-18T14:29:43;18.20;;;7.47;;
249;SDS011;109;19.806;-70.704;2022-12-18T14:32:11;20.20;;;7.87;;
249;SDS011;109;19.806;-70.704;2022-12-18T14:34:43;44.90;;;9.20;;
249;SDS011;109;19.806;-70.704;2022-12-18T14:37:11;43.30;;;8.73;;
249;SDS011;109;19.806;-70.704;2022-12-18T14:39:40;43.20;;;8.83;;
249;SDS011;109;19.806;-70.704;2022-12-18T14:42:17;23.27;;;7.10;;
249;SDS011;109;19.806;-70.704;2022-12-18T14:44:44;32.20;;;7.60;;
249;SDS011;109;19.806;-70.704;2022-12-18T14:47:13;33.97;;;8.80;;
249;SDS011;109;19.806;-70.704;2022-12-18T14:49:41;27.97;;;8.13;;
249;SDS011;109;19.806;-70.704;2022-12-18T14:52:18;40.73;;;8.40;;
249;SDS011;109;19.806;-70.704;2022-12-18T14:54:53;27.60;;;6.47;;
249;SDS011;109;19.806;-70.704;2022-12-18T14:57:29;63.53;;;11.10;;
249;SDS011;109;19.806;-70.704;2022-12-18T15:00:04;14.80;;;6.50;;
249;SDS011;109;19.806;-70.704;2022-12-18T15:02:34;20.07;;;6.63;;
249;SDS011;109;19.806;-70.704;2022-12-18T15:07:44;59.83;;;9.07;;
249;SDS011;109;19.806;-70.704;2022-12-18T15:10:19;23.00;;;6.50;;
249;SDS011;109;19.806;-70.704;2022-12-18T15:20:32;40.90;;;8.70;;
249;SDS011;109;19.806;-70.704;2022-12-18T15:23:27;29.57;;;6.60;;
249;SDS011;109;19.806;-70.704;2022-12-18T15:25:55;28.87;;;7.03;;
249;SDS011;109;19.806;-70.704;2022-12-18T15:28:31;26.30;;;8.10;;
249;SDS011;109;19.806;-70.704;2022-12-18T15:31:00;26.80;;;7.10;;
249;SDS011;109;19.806;-70.704;2022-12-18T15:33:32;33.30;;;8.40;;
249;SDS011;109;19.806;-70.704;2022-12-18T15:36:02;39.03;;;7.43;;
249;SDS011;109;19.806;-70.704;2022-12-18T15:38:33;31.93;;;6.10;;
249;SDS011;109;19.806;-70.704;2022-12-18T15:41:00;38.40;;;7.00;;
249;SDS011;109;19.806;-70.704;2022-12-18T15:43:28;32.43;;;7.10;;
249;SDS011;109;19.806;-70.704;2022-12-18T15:48:28;30.97;;;6.37;;
249;SDS011;109;19.806;-70.704;2022-12-18T15:50:56;23.47;;;5.63;;
249;SDS011;109;19.806;-70.704;2022-12-18T15:53:25;31.53;;;6.53;;
249;SDS011;109;19.806;-70.704;2022-12-18T15:55:56;35.43;;;6.30;;
249;SDS011;109;19.806;-70.704;2022-12-18T15:58:42;37.80;;;7.40;;
249;SDS011;109;19.806;-70.704;2022-12-18T16:01:08;35.73;;;7.27;;
249;SDS011;109;19.806;-70.704;2022-12-18T16:03:36;46.13;;;7.53;;
249;SDS011;109;19.806;-70.704;2022-12-18T16:06:02;37.10;;;8.13;;
249;SDS011;109;19.806;-70.704;2022-12-18T16:08:29;34.40;;;7.03;;
249;SDS011;109;19.806;-70.704;2022-12-18T16:10:56;19.77;;;6.90;;
249;SDS011;109;19.806;-70.704;2022-12-18T16:13:23;25.97;;;6.97;;
249;SDS011;109;19.806;-70.704;2022-12-18T16:15:50;48.43;;;7.70;;
249;SDS011;109;19.806;-70.704;2022-12-18T16:18:17;34.13;;;6.80;;
249;SDS011;109;19.806;-70.704;2022-12-18T16:20:43;37.50;;;7.73;;
249;SDS011;109;19.806;-70.704;2022-12-18T16:23:09;32.90;;;6.67;;
249;SDS011;109;19.806;-70.704;2022-12-18T16:25:36;46.43;;;9.43;;
249;SDS011;109;19.806;-70.704;2022-12-18T16:28:04;46.37;;;7.23;;
249;SDS011;109;19.806;-70.704;2022-12-18T16:30:31;43.00;;;8.27;;
249;SDS011;109;19.806;-70.704;2022-12-18T16:32:57;37.53;;;8.43;;
249;SDS011;109;19.806;-70.704;2022-12-18T16:35:25;44.67;;;8.97;;
249;SDS011;109;19.806;-70.704;2022-12-18T16:37:52;38.57;;;6.70;;
249;SDS011;109;19.806;-70.704;2022-12-18T16:40:19;62.57;;;12.13;;
249;SDS011;109;19.806;-70.704;2022-12-18T16:42:45;90.73;;;11.50;;
249;SDS011;109;19.806;-70.704;2022-12-18T16:45:14;37.87;;;7.93;;
249;SDS011;109;19.806;-70.704;2022-12-18T16:47:42;63.40;;;9.90;;
249;SDS011;109;19.806;-70.704;2022-12-18T16:50:09;48.30;;;9.80;;
249;SDS011;109;19.806;-70.704;2022-12-18T16:52:36;51.53;;;8.43;;
249;SDS011;109;19.806;-70.704;2022-12-18T16:55:03;46.20;;;8.90;;
249;SDS011;109;19.806;-70.704;2022-12-18T16:57:29;57.17;;;11.00;;
249;SDS011;109;19.806;-70.704;2022-12-18T16:59:56;67.87;;;9.90;;
249;SDS011;109;19.806;-70.704;2022-12-18T17:02:23;44.83;;;8.90;;
249;SDS011;109;19.806;-70.704;2022-12-18T17:04:55;41.33;;;7.80;;
249;SDS011;109;19.806;-70.704;2022-12-18T17:07:23;33.80;;;8.07;;
249;SDS011;109;19.806;-70.704;2022-12-18T17:09:51;50.23;;;7.40;;
249;SDS011;109;19.806;-70.704;2022-12-18T17:12:19;33.03;;;8.77;;
249;SDS011;109;19.806;-70.704;2022-12-18T17:14:46;70.07;;;11.00;;
249;SDS011;109;19.806;-70.704;2022-12-18T17:17:13;36.43;;;6.97;;
249;SDS011;109;19.806;-70.704;2022-12-18T17:19:40;41.00;;;6.97;;
249;SDS011;109;19.806;-70.704;2022-12-18T17:22:06;57.80;;;8.93;;
249;SDS011;109;19.806;-70.704;2022-12-18T17:24:33;50.83;;;8.00;;
249;SDS011;109;19.806;-70.704;2022-12-18T17:27:00;54.07;;;8.20;;
249;SDS011;109;19.806;-70.704;2022-12-18T17:29:28;55.87;;;8.40;;
249;SDS011;109;19.806;-70.704;2022-12-18T17:31:54;57.17;;;10.20;;
249;SDS011;109;19.806;-70.704;2022-12-18T17:34:22;82.57;;;11.77;;
249;SDS011;109;19.806;-70.704;2022-12-18T17:36:49;51.90;;;7.73;;
249;SDS011;109;19.806;-70.704;2022-12-18T17:39:17;38.93;;;9.00;;
249;SDS011;109;19.806;-70.704;2022-12-18T17:41:44;55.30;;;9.43;;
249;SDS011;109;19.806;-70.704;2022-12-18T17:44:12;55.77;;;9.77;;
249;SDS011;109;19.806;-70.704;2022-12-18T17:46:40;50.60;;;9.47;;
249;SDS011;109;19.806;-70.704;2022-12-18T17:49:08;37.00;;;9.17;;
249;SDS011;109;19.806;-70.704;2022-12-18T17:51:35;30.30;;;7.50;;
249;SDS011;109;19.806;-70.704;2022-12-18T17:54:01;60.47;;;12.33;;